Time;durP1;ratioP1;P1;durP2;ratioP2;P2;SDS_P1;SDS_P2;PMS_P1;PMS_P2;Temp;Humidity;BMP_temperature;BMP_pressure;BME280_temperature;BME280_humidity;BME280_pressure;Samples;Min_cycle;Max_cycle;Signal;HPM_P1;HPM_P2
2022/03/31 00:00:06;;;;;;;2.97;1.15;;;;;;;;;;5079013;28;20036;-80
2022/03/31 00:02:32;;;;;;;1.42;0.88;;;;;;;;;;5079235;28;20050;-79
2022/03/31 00:04:59;;;;;;;2.03;1.15;;;;;;;;;;5063909;28;20036;-80
2022/03/31 00:07:25;;;;;;;2.03;0.65;;;;;;;;;;5086874;28;20063;-80
2022/03/31 00:09:51;;;;;;;1.45;0.98;;;;;;;;;;5059316;28;20047;-79
2022/03/31 00:12:17;;;;;;;1.02;0.60;;;;;;;;;;5061464;28;20044;-80
2022/03/31 00:14:44;;;;;;;3.70;0.80;;;;;;;;;;5061618;28;20036;-79
2022/03/31 00:17:10;;;;;;;5.07;0.80;;;;;;;;;;5062245;28;20151;-78
2022/03/31 00:19:37;;;;;;;2.78;0.50;;;;;;;;;;5062564;28;20097;-79
2022/03/31 00:34:17;;;;;;;7.97;0.68;;;;;;;;;;5088335;28;20036;-79
2022/03/31 00:36:44;;;;;;;0.30;0.30;;;;;;;;;;5077531;28;20063;-78
2022/03/31 00:39:34;;;;;;;0.63;0.45;;;;;;;;;;5093306;28;20031;-80
2022/03/31 00:42:02;;;;;;;0.38;0.35;;;;;;;;;;5071273;28;20399;-80
2022/03/31 00:44:29;;;;;;;0.50;0.47;;;;;;;;;;5094277;28;20044;-82
2022/03/31 00:46:55;;;;;;;0.73;0.60;;;;;;;;;;5074721;28;20024;-76
2022/03/31 00:49:25;;;;;;;1.08;0.70;;;;;;;;;;5065399;28;20021;-82
2022/03/31 00:51:52;;;;;;;1.02;0.70;;;;;;;;;;5064882;28;20118;-79
2022/03/31 00:54:19;;;;;;;1.85;0.40;;;;;;;;;;5086730;28;20473;-78
2022/03/31 00:56:46;;;;;;;2.78;2.38;;;;;;;;;;5081110;28;20041;-80
2022/03/31 00:59:12;;;;;;;3.00;0.93;;;;;;;;;;5078305;28;20058;-81
2022/03/31 01:01:38;;;;;;;0.30;0.30;;;;;;;;;;5060681;28;20067;-81
2022/03/31 01:04:05;;;;;;;0.90;0.50;;;;;;;;;;5080899;28;20033;-80
2022/03/31 01:06:31;;;;;;;1.00;0.68;;;;;;;;;;5064544;28;20579;-82
2022/03/31 01:08:59;;;;;;;0.40;0.40;;;;;;;;;;5069538;28;20040;-80
2022/03/31 01:11:25;;;;;;;0.82;0.40;;;;;;;;;;5056607;28;20068;-82
2022/03/31 01:13:52;;;;;;;1.17;0.65;;;;;;;;;;5070004;28;20044;-79
2022/03/31 01:16:18;;;;;;;1.33;0.35;;;;;;;;;;5070867;28;20530;-80
2022/03/31 01:18:44;;;;;;;5.28;0.85;;;;;;;;;;5056525;28;20048;-80
2022/03/31 01:21:10;;;;;;;0.73;0.52;;;;;;;;;;5073855;28;20105;-78
2022/03/31 01:23:36;;;;;;;0.63;0.43;;;;;;;;;;5087917;28;20039;-81
2022/03/31 01:26:04;;;;;;;2.63;0.65;;;;;;;;;;5072046;28;20037;-78
2022/03/31 01:28:30;;;;;;;0.40;0.30;;;;;;;;;;5075506;28;20050;-79
2022/03/31 01:30:56;;;;;;;2.40;0.80;;;;;;;;;;5076977;28;20033;-80
2022/03/31 01:33:22;;;;;;;0.55;0.50;;;;;;;;;;5091684;28;20036;-81
2022/03/31 01:35:49;;;;;;;0.45;0.45;;;;;;;;;;5062344;28;20510;-81
2022/03/31 01:38:15;;;;;;;0.40;0.40;;;;;;;;;;5065539;28;20527;-81
2022/03/31 01:40:41;;;;;;;1.55;0.57;;;;;;;;;;5067876;28;20061;-80
2022/03/31 01:43:08;;;;;;;1.17;0.68;;;;;;;;;;5086603;28;20123;-81
2022/03/31 01:45:34;;;;;;;0.75;0.75;;;;;;;;;;5069365;28;20396;-81
2022/03/31 01:48:00;;;;;;;1.98;0.73;;;;;;;;;;5081081;28;20045;-78
2022/03/31 01:50:26;;;;;;;0.52;0.52;;;;;;;;;;5071205;28;20036;-79
2022/03/31 01:52:52;;;;;;;8.95;0.75;;;;;;;;;;5073339;28;20041;-81
2022/03/31 01:55:18;;;;;;;1.48;0.90;;;;;;;;;;5057737;28;20036;-80
2022/03/31 01:57:44;;;;;;;2.08;1.65;;;;;;;;;;5065958;28;20068;-80
2022/03/31 02:00:10;;;;;;;1.35;1.23;;;;;;;;;;5068731;28;20054;-79
2022/03/31 02:02:36;;;;;;;2.75;1.73;;;;;;;;;;5069460;28;20047;-80
2022/03/31 02:05:03;;;;;;;3.50;1.77;;;;;;;;;;5070362;28;20043;-78
2022/03/31 02:07:29;;;;;;;1.27;1.00;;;;;;;;;;5072574;28;20138;-79
2022/03/31 02:09:55;;;;;;;2.42;1.40;;;;;;;;;;5090679;28;20044;-81
2022/03/31 02:12:21;;;;;;;0.95;0.95;;;;;;;;;;5087008;28;20068;-79
2022/03/31 02:14:47;;;;;;;1.65;0.75;;;;;;;;;;5088069;28;20028;-79
2022/03/31 02:17:13;;;;;;;4.40;2.47;;;;;;;;;;5088055;28;20048;-79
2022/03/31 02:19:39;;;;;;;1.73;1.63;;;;;;;;;;5071460;28;20037;-82
2022/03/31 02:22:08;;;;;;;9.18;1.63;;;;;;;;;;5070712;28;20032;-79
2022/03/31 02:24:35;;;;;;;6.10;2.05;;;;;;;;;;5089282;28;20041;-80
2022/03/31 02:27:03;;;;;;;2.63;1.77;;;;;;;;;;5089514;28;20084;-81
2022/03/31 02:29:29;;;;;;;2.08;1.40;;;;;;;;;;5070261;28;20507;-79
2022/03/31 02:31:55;;;;;;;2.50;1.77;;;;;;;;;;5072535;28;20040;-79
2022/03/31 02:34:20;;;;;;;4.97;2.97;;;;;;;;;;5069961;28;20502;-79
2022/03/31 02:36:46;;;;;;;1.58;1.27;;;;;;;;;;5071071;28;20479;-80
2022/03/31 02:39:14;;;;;;;3.47;3.03;;;;;;;;;;5070791;28;20400;-78
2022/03/31 02:41:40;;;;;;;6.35;3.33;;;;;;;;;;5064992;28;20048;-80
2022/03/31 02:44:06;;;;;;;7.57;3.60;;;;;;;;;;5065199;28;20040;-79
2022/03/31 02:46:33;;;;;;;3.17;1.75;;;;;;;;;;5065845;28;20041;-80
2022/03/31 02:48:59;;;;;;;5.07;4.68;;;;;;;;;;5068508;28;20462;-80
2022/03/31 02:51:26;;;;;;;3.67;1.73;;;;;;;;;;5085270;28;20044;-78
2022/03/31 02:56:38;;;;;;;2.58;2.38;;;;;;;;;;5082995;28;20045;-79
2022/03/31 02:59:04;;;;;;;3.38;2.25;;;;;;;;;;5080368;28;20047;-78
2022/03/31 03:01:30;;;;;;;2.60;2.15;;;;;;;;;;5065869;28;20040;-82
2022/03/31 03:04:00;;;;;;;6.15;3.22;;;;;;;;;;5067642;28;20036;-78
2022/03/31 03:06:26;;;;;;;1.52;1.42;;;;;;;;;;5085707;28;20048;-81
2022/03/31 03:08:54;;;;;;;3.75;2.33;;;;;;;;;;5067753;28;20154;-79
2022/03/31 03:11:20;;;;;;;2.08;1.90;;;;;;;;;;5068586;28;20051;-78
2022/03/31 03:13:46;;;;;;;3.83;3.60;;;;;;;;;;5085936;28;20143;-77
2022/03/31 03:16:13;;;;;;;2.42;1.92;;;;;;;;;;5086903;28;20025;-79
2022/03/31 03:18:39;;;;;;;1.88;1.75;;;;;;;;;;5080541;28;20046;-79
2022/03/31 03:21:07;;;;;;;1.60;1.50;;;;;;;;;;5067673;28;20127;-82
2022/03/31 03:23:33;;;;;;;2.58;2.38;;;;;;;;;;5066320;28;20045;-78
2022/03/31 03:26:01;;;;;;;3.10;2.15;;;;;;;;;;5085938;28;20082;-79
2022/03/31 03:28:27;;;;;;;3.70;2.15;;;;;;;;;;5080884;28;20444;-79
2022/03/31 03:30:53;;;;;;;2.05;1.92;;;;;;;;;;5070310;28;20035;-79
2022/03/31 03:33:19;;;;;;;5.90;1.77;;;;;;;;;;5066261;28;20110;-79
2022/03/31 03:35:46;;;;;;;3.05;2.00;;;;;;;;;;5084393;28;20127;-80
2022/03/31 03:38:14;;;;;;;2.90;2.13;;;;;;;;;;5082378;28;20037;-81
2022/03/31 03:40:40;;;;;;;3.08;2.40;;;;;;;;;;5069464;23;20049;-80
2022/03/31 03:43:06;;;;;;;1.95;1.75;;;;;;;;;;5065204;28;20144;-80
2022/03/31 03:45:32;;;;;;;2.58;1.70;;;;;;;;;;5062901;28;20040;-80
2022/03/31 03:47:59;;;;;;;3.17;1.95;;;;;;;;;;5063298;28;20188;-81
2022/03/31 03:50:25;;;;;;;3.13;2.22;;;;;;;;;;5063450;28;20131;-78
2022/03/31 03:52:51;;;;;;;3.33;2.05;;;;;;;;;;5061459;28;20076;-79
2022/03/31 03:55:17;;;;;;;5.13;2.50;;;;;;;;;;5063033;28;20044;-80
2022/03/31 03:57:43;;;;;;;2.53;1.75;;;;;;;;;;5078985;28;20037;-80
2022/03/31 04:00:10;;;;;;;1.48;1.38;;;;;;;;;;5077421;28;20104;-80
2022/03/31 04:02:36;;;;;;;1.60;1.50;;;;;;;;;;5079044;28;20040;-81
2022/03/31 04:05:03;;;;;;;3.05;1.52;;;;;;;;;;5062403;28;20484;-80
2022/03/31 04:07:28;;;;;;;6.32;3.75;;;;;;;;;;5062912;28;20036;-80
2022/03/31 04:09:54;;;;;;;5.50;2.30;;;;;;;;;;5063685;28;20036;-83
2022/03/31 04:12:20;;;;;;;2.63;1.23;;;;;;;;;;5063102;28;20040;-80
2022/03/31 04:14:46;;;;;;;3.70;2.63;;;;;;;;;;5077310;28;20052;-82
2022/03/31 04:17:12;;;;;;;4.00;2.47;;;;;;;;;;5077170;28;20044;-80
2022/03/31 04:19:38;;;;;;;1.60;0.90;;;;;;;;;;5059235;28;20036;-78
2022/03/31 04:22:05;;;;;;;5.30;2.25;;;;;;;;;;5057240;28;20472;-79
2022/03/31 04:24:30;;;;;;;2.63;2.42;;;;;;;;;;5056551;28;20044;-79
2022/03/31 04:26:56;;;;;;;2.30;1.58;;;;;;;;;;5057549;28;20080;-79
2022/03/31 04:29:24;;;;;;;6.35;2.67;;;;;;;;;;5056227;28;20044;-78
2022/03/31 04:31:50;;;;;;;1.75;1.65;;;;;;;;;;5060544;28;20040;-80
2022/03/31 04:34:16;;;;;;;3.20;2.72;;;;;;;;;;5058971;28;20058;-79
2022/03/31 04:36:43;;;;;;;2.65;2.45;;;;;;;;;;5074929;28;20835;-80
2022/03/31 04:39:09;;;;;;;5.43;2.60;;;;;;;;;;5080457;28;20127;-79
2022/03/31 04:41:35;;;;;;;5.88;2.65;;;;;;;;;;5077854;28;20084;-79
2022/03/31 04:44:01;;;;;;;5.60;3.25;;;;;;;;;;5077764;28;20036;-78
2022/03/31 04:46:27;;;;;;;2.80;1.65;;;;;;;;;;5060184;28;20044;-81
2022/03/31 04:48:52;;;;;;;8.52;3.88;;;;;;;;;;5060358;28;20048;-79
2022/03/31 04:51:18;;;;;;;3.22;2.97;;;;;;;;;;5073166;28;20045;-80
2022/03/31 04:53:44;;;;;;;4.60;3.00;;;;;;;;;;5059311;28;20113;-78
2022/03/31 04:56:10;;;;;;;6.43;3.63;;;;;;;;;;5059348;28;20040;-82
2022/03/31 04:58:37;;;;;;;3.75;2.15;;;;;;;;;;5082162;28;20037;-79
2022/03/31 05:01:04;;;;;;;3.42;2.65;;;;;;;;;;5063903;28;20351;-79
2022/03/31 05:03:30;;;;;;;4.13;3.08;;;;;;;;;;5062022;28;20073;-80
2022/03/31 05:05:56;;;;;;;5.03;3.08;;;;;;;;;;5078800;28;20398;-84
2022/03/31 05:08:22;;;;;;;4.95;3.10;;;;;;;;;;5063396;28;20048;-82
2022/03/31 05:10:48;;;;;;;3.08;2.17;;;;;;;;;;5064350;28;20086;-83
2022/03/31 05:13:14;;;;;;;8.73;5.78;;;;;;;;;;5078422;28;20036;-79
2022/03/31 05:15:39;;;;;;;7.22;5.05;;;;;;;;;;5063252;28;20127;-79
2022/03/31 05:18:06;;;;;;;15.60;7.80;;;;;;;;;;5074980;28;20093;-78
2022/03/31 05:20:32;;;;;;;17.27;7.88;;;;;;;;;;5055058;28;20457;-77
2022/03/31 05:22:58;;;;;;;10.85;6.70;;;;;;;;;;5056553;28;20040;-79
2022/03/31 05:25:24;;;;;;;2.85;1.98;;;;;;;;;;5055940;28;20468;-78
2022/03/31 05:27:51;;;;;;;16.77;7.60;;;;;;;;;;5073621;28;20040;-78
2022/03/31 05:30:19;;;;;;;12.07;6.32;;;;;;;;;;5072943;28;20044;-79
2022/03/31 05:32:46;;;;;;;12.70;7.45;;;;;;;;;;5073742;28;20066;-78
2022/03/31 05:35:13;;;;;;;11.10;6.65;;;;;;;;;;5075100;28;20063;-80
2022/03/31 05:37:40;;;;;;;6.07;5.20;;;;;;;;;;5074568;28;20060;-81
2022/03/31 05:40:06;;;;;;;4.53;3.20;;;;;;;;;;5057922;28;20048;-79
2022/03/31 05:42:33;;;;;;;7.07;4.70;;;;;;;;;;5080593;28;20083;-81
2022/03/31 05:44:59;;;;;;;3.42;2.28;;;;;;;;;;5098101;28;20399;-79
2022/03/31 05:47:26;;;;;;;8.90;4.63;;;;;;;;;;5082434;28;20579;-81
2022/03/31 05:49:55;;;;;;;5.72;3.80;;;;;;;;;;5083003;28;20068;-82
2022/03/31 05:52:21;;;;;;;3.78;2.88;;;;;;;;;;5099834;28;20414;-79
2022/03/31 05:54:48;;;;;;;6.05;3.97;;;;;;;;;;5098200;28;20464;-80
2022/03/31 05:57:14;;;;;;;6.97;4.50;;;;;;;;;;5096938;28;20044;-78
2022/03/31 05:59:40;;;;;;;5.00;3.25;;;;;;;;;;5096580;28;20482;-79
2022/03/31 06:02:07;;;;;;;4.35;3.13;;;;;;;;;;5079601;28;20432;-78
2022/03/31 06:04:33;;;;;;;4.63;3.42;;;;;;;;;;5083880;28;20104;-79
2022/03/31 06:06:59;;;;;;;5.63;3.90;;;;;;;;;;5102009;28;20079;-77
2022/03/31 06:09:25;;;;;;;5.63;4.07;;;;;;;;;;5089209;27;20130;-79
2022/03/31 06:11:51;;;;;;;8.80;4.60;;;;;;;;;;5109349;27;20447;-81
2022/03/31 06:14:17;;;;;;;6.40;4.35;;;;;;;;;;5092726;27;20088;-79
2022/03/31 06:16:43;;;;;;;7.15;5.07;;;;;;;;;;5091450;27;20604;-77
2022/03/31 06:19:09;;;;;;;6.28;4.68;;;;;;;;;;5108552;27;20032;-78
2022/03/31 06:21:35;;;;;;;5.30;2.97;;;;;;;;;;5093470;27;20375;-79
2022/03/31 06:24:02;;;;;;;12.60;6.00;;;;;;;;;;5092715;27;20068;-79
2022/03/31 06:26:28;;;;;;;11.85;5.65;;;;;;;;;;5107742;27;20039;-77
2022/03/31 06:28:54;;;;;;;17.33;7.03;;;;;;;;;;5111980;27;20058;-79
2022/03/31 06:31:22;;;;;;;12.48;5.80;;;;;;;;;;5088959;27;20035;-77
2022/03/31 06:33:48;;;;;;;6.15;4.05;;;;;;;;;;5106607;27;20067;-78
2022/03/31 06:36:14;;;;;;;11.30;6.13;;;;;;;;;;5106955;27;20515;-78
2022/03/31 06:38:40;;;;;;;6.40;4.72;;;;;;;;;;5109188;27;20071;-78
2022/03/31 06:41:06;;;;;;;11.93;6.18;;;;;;;;;;5109261;27;20064;-80
2022/03/31 06:43:35;;;;;;;4.20;3.63;;;;;;;;;;5108694;28;20043;-78
2022/03/31 06:46:01;;;;;;;9.20;5.60;;;;;;;;;;5104365;27;20089;-77
2022/03/31 06:48:29;;;;;;;16.85;6.90;;;;;;;;;;5107443;27;20051;-78
2022/03/31 06:50:56;;;;;;;13.07;7.38;;;;;;;;;;5106620;27;20043;-78
2022/03/31 06:53:22;;;;;;;9.55;5.78;;;;;;;;;;5107487;27;20091;-78
2022/03/31 06:55:48;;;;;;;7.88;4.95;;;;;;;;;;5090589;27;20071;-79
2022/03/31 06:58:14;;;;;;;8.85;4.88;;;;;;;;;;5111221;27;20158;-78
2022/03/31 07:00:41;;;;;;;14.02;7.03;;;;;;;;;;5087693;27;20114;-78
2022/03/31 07:03:07;;;;;;;6.72;4.30;;;;;;;;;;5090908;27;20058;-77
2022/03/31 07:05:36;;;;;;;14.68;7.85;;;;;;;;;;5105448;28;20047;-80
2022/03/31 07:08:02;;;;;;;12.32;6.00;;;;;;;;;;5086279;27;20134;-77
2022/03/31 07:10:28;;;;;;;13.70;7.35;;;;;;;;;;5093769;27;20074;-77
2022/03/31 07:12:54;;;;;;;11.85;6.18;;;;;;;;;;5104506;27;20510;-78
2022/03/31 07:15:20;;;;;;;17.83;8.57;;;;;;;;;;5086523;27;20043;-79
2022/03/31 07:17:46;;;;;;;19.27;9.55;;;;;;;;;;5106359;27;20094;-77
2022/03/31 07:20:12;;;;;;;24.08;10.10;;;;;;;;;;5104358;27;20126;-76
2022/03/31 07:22:46;;;;;;;8.30;4.68;;;;;;;;;;5090020;27;20068;-77
2022/03/31 07:25:13;;;;;;;11.75;6.00;;;;;;;;;;5105990;27;20351;-76
2022/03/31 07:27:39;;;;;;;11.40;7.13;;;;;;;;;;5103391;27;20035;-77
2022/03/31 07:30:05;;;;;;;23.83;11.45;;;;;;;;;;5090235;27;20043;-76
2022/03/31 07:32:32;;;;;;;33.13;13.43;;;;;;;;;;5100870;27;20390;-79
2022/03/31 07:34:58;;;;;;;8.80;4.47;;;;;;;;;;5100528;28;20040;-75
2022/03/31 07:37:24;;;;;;;13.25;7.65;;;;;;;;;;5078535;28;20048;-78
2022/03/31 07:39:50;;;;;;;13.68;7.63;;;;;;;;;;5078786;28;20057;-78
2022/03/31 07:42:16;;;;;;;11.63;6.70;;;;;;;;;;5072523;28;20048;-76
2022/03/31 07:44:42;;;;;;;11.60;6.75;;;;;;;;;;5052727;28;20044;-76
2022/03/31 07:47:08;;;;;;;8.70;5.13;;;;;;;;;;5053040;28;20391;-76
2022/03/31 07:49:35;;;;;;;10.60;6.78;;;;;;;;;;5055981;28;20048;-76
2022/03/31 07:52:01;;;;;;;9.48;5.60;;;;;;;;;;5071219;28;20169;-78
2022/03/31 07:54:27;;;;;;;10.02;6.82;;;;;;;;;;5070116;28;20551;-76
2022/03/31 07:56:53;;;;;;;8.95;6.15;;;;;;;;;;5070493;28;20560;-77
2022/03/31 07:59:23;;;;;;;11.90;5.95;;;;;;;;;;5053521;28;20036;-75
2022/03/31 08:01:49;;;;;;;7.03;4.88;;;;;;;;;;5053600;28;20123;-79
2022/03/31 08:04:16;;;;;;;6.05;3.25;;;;;;;;;;5053899;28;20051;-83
2022/03/31 08:06:43;;;;;;;7.63;4.82;;;;;;;;;;5072744;28;20511;-78
2022/03/31 08:09:10;;;;;;;6.43;3.42;;;;;;;;;;5057170;28;20055;-82
2022/03/31 08:11:36;;;;;;;9.60;5.30;;;;;;;;;;5056980;28;20051;-80
2022/03/31 08:14:03;;;;;;;14.57;6.50;;;;;;;;;;5074101;28;20036;-79
2022/03/31 08:16:29;;;;;;;12.85;6.05;;;;;;;;;;5058183;28;20075;-76
2022/03/31 08:18:55;;;;;;;3.97;2.58;;;;;;;;;;5055374;28;20040;-77
2022/03/31 08:21:21;;;;;;;5.78;3.45;;;;;;;;;;5071752;28;20045;-78
2022/03/31 08:23:47;;;;;;;5.40;3.17;;;;;;;;;;5056098;28;20040;-76
2022/03/31 08:26:13;;;;;;;7.07;3.10;;;;;;;;;;5056250;28;20051;-78
2022/03/31 08:28:40;;;;;;;8.48;4.53;;;;;;;;;;5054525;28;20040;-81
2022/03/31 08:31:07;;;;;;;10.15;4.03;;;;;;;;;;5055106;28;20051;-78
2022/03/31 08:33:33;;;;;;;7.35;3.47;;;;;;;;;;5071600;28;20084;-77
2022/03/31 08:35:59;;;;;;;5.35;3.13;;;;;;;;;;5054747;28;20051;-80
2022/03/31 08:38:25;;;;;;;20.52;8.55;;;;;;;;;;5073018;28;20040;-79
2022/03/31 08:40:51;;;;;;;13.55;6.18;;;;;;;;;;5056084;28;20063;-78
2022/03/31 08:43:19;;;;;;;11.77;4.43;;;;;;;;;;5065483;28;20041;-79
2022/03/31 08:45:54;;;;;;;11.27;5.63;;;;;;;;;;5064184;28;20035;-80
2022/03/31 08:48:20;;;;;;;21.58;9.18;;;;;;;;;;5064593;28;20047;-79
2022/03/31 08:50:46;;;;;;;10.00;5.25;;;;;;;;;;5064280;28;20036;-81
2022/03/31 08:53:12;;;;;;;6.15;3.55;;;;;;;;;;5061460;28;20046;-81
2022/03/31 08:55:38;;;;;;;8.23;4.00;;;;;;;;;;5065391;28;20032;-79
2022/03/31 08:58:04;;;;;;;5.70;2.78;;;;;;;;;;5064253;28;20100;-81
2022/03/31 09:00:30;;;;;;;8.57;4.82;;;;;;;;;;5063248;28;20040;-81
2022/03/31 09:03:01;;;;;;;7.15;3.38;;;;;;;;;;5065513;28;20036;-81
2022/03/31 09:05:27;;;;;;;4.17;2.20;;;;;;;;;;5082604;28;20056;-80
2022/03/31 09:07:54;;;;;;;10.25;5.30;;;;;;;;;;5075559;28;20048;-80
2022/03/31 09:10:27;;;;;;;8.82;4.50;;;;;;;;;;5065165;28;20119;-79
2022/03/31 09:12:53;;;;;;;8.48;4.43;;;;;;;;;;5063041;28;20119;-80
2022/03/31 09:15:19;;;;;;;8.13;3.72;;;;;;;;;;5063795;28;20498;-78
2022/03/31 09:17:45;;;;;;;10.48;5.35;;;;;;;;;;5066287;28;20040;-79
2022/03/31 09:20:11;;;;;;;7.70;4.57;;;;;;;;;;5062864;28;20036;-78
2022/03/31 09:22:49;;;;;;;9.18;4.10;;;;;;;;;;5062797;28;20384;-81
2022/03/31 09:25:28;;;;;;;16.85;6.45;;;;;;;;;;5058260;28;20410;-78
2022/03/31 09:27:55;;;;;;;13.23;5.15;;;;;;;;;;5076482;28;20056;-83
2022/03/31 09:30:22;;;;;;;13.15;6.43;;;;;;;;;;5063754;28;20036;-77
2022/03/31 09:32:52;;;;;;;14.98;5.80;;;;;;;;;;5079730;28;20047;-80
2022/03/31 09:35:25;;;;;;;8.88;4.57;;;;;;;;;;5063111;28;20067;-79
2022/03/31 09:37:54;;;;;;;4.63;2.83;;;;;;;;;;5061202;28;20040;-82
2022/03/31 09:40:20;;;;;;;7.38;4.30;;;;;;;;;;5068115;27;20040;-81
2022/03/31 09:43:00;;;;;;;9.77;3.42;;;;;;;;;;5107283;27;20046;-79
2022/03/31 09:45:37;;;;;;;11.05;4.43;;;;;;;;;;5089488;27;20089;-79
2022/03/31 09:48:04;;;;;;;6.65;3.10;;;;;;;;;;5107508;27;20051;-81
2022/03/31 09:50:34;;;;;;;8.60;4.72;;;;;;;;;;5105898;27;20125;-80
2022/03/31 09:53:00;;;;;;;7.07;3.50;;;;;;;;;;5108775;27;20043;-81
2022/03/31 09:55:26;;;;;;;6.28;3.58;;;;;;;;;;5091695;27;20051;-82
2022/03/31 09:57:53;;;;;;;7.43;4.20;;;;;;;;;;5104465;27;20051;-78
2022/03/31 10:00:21;;;;;;;4.63;3.08;;;;;;;;;;5108329;27;20070;-79
2022/03/31 10:02:47;;;;;;;6.90;3.53;;;;;;;;;;5090512;27;20104;-77
2022/03/31 10:05:15;;;;;;;8.25;4.45;;;;;;;;;;5107228;27;20039;-80
2022/03/31 10:07:45;;;;;;;5.55;3.13;;;;;;;;;;5088580;27;20050;-79
2022/03/31 10:10:11;;;;;;;10.70;4.70;;;;;;;;;;5092261;27;20039;-82
2022/03/31 10:12:41;;;;;;;5.55;2.90;;;;;;;;;;5092285;27;20050;-82
2022/03/31 10:15:14;;;;;;;5.13;3.35;;;;;;;;;;5071897;27;20046;-77
2022/03/31 10:17:42;;;;;;;15.30;7.40;;;;;;;;;;5088750;27;20078;-78
2022/03/31 10:20:09;;;;;;;24.55;11.57;;;;;;;;;;5104685;28;20054;-77
2022/03/31 10:25:20;;;;;;;5.32;2.90;;;;;;;;;;5103465;27;20035;-83
2022/03/31 10:27:46;;;;;;;5.50;2.80;;;;;;;;;;5089782;27;20082;-76
2022/03/31 10:30:16;;;;;;;4.70;3.05;;;;;;;;;;5103171;27;20097;-80
2022/03/31 10:32:59;;;;;;;6.45;3.72;;;;;;;;;;5079605;28;20375;-76
2022/03/31 10:35:29;;;;;;;6.95;3.35;;;;;;;;;;5094782;28;20086;-76
2022/03/31 10:37:56;;;;;;;4.90;3.73;;;;;;;;;;5076667;28;20039;-79
2022/03/31 10:40:30;;;;;;;13.20;6.28;;;;;;;;;;5076495;28;20702;-79
2022/03/31 10:42:56;;;;;;;9.23;5.43;;;;;;;;;;5078300;28;20047;-80
2022/03/31 10:45:32;;;;;;;12.57;6.78;;;;;;;;;;5079511;28;20071;-81
2022/03/31 10:47:58;;;;;;;10.63;4.43;;;;;;;;;;5095008;28;20399;-79
2022/03/31 10:50:28;;;;;;;8.95;4.07;;;;;;;;;;5078773;28;20108;-81
2022/03/31 10:53:13;;;;;;;9.73;5.80;;;;;;;;;;5079832;28;20047;-76
2022/03/31 10:55:43;;;;;;;6.90;4.53;;;;;;;;;;5077646;28;20483;-77
2022/03/31 10:58:26;;;;;;;7.75;4.53;;;;;;;;;;5078388;28;20126;-77
2022/03/31 11:01:03;;;;;;;8.93;4.43;;;;;;;;;;5094152;28;20089;-77
2022/03/31 11:03:29;;;;;;;5.95;3.28;;;;;;;;;;5077699;28;20043;-79
2022/03/31 11:05:59;;;;;;;7.47;4.63;;;;;;;;;;5078407;28;20054;-80
2022/03/31 11:08:25;;;;;;;6.18;3.67;;;;;;;;;;5077198;28;20086;-80
2022/03/31 11:10:52;;;;;;;9.88;5.13;;;;;;;;;;5076690;28;20074;-79
2022/03/31 11:13:20;;;;;;;5.43;3.00;;;;;;;;;;5076952;28;20368;-84
2022/03/31 11:15:54;;;;;;;6.43;3.63;;;;;;;;;;5076598;28;20036;-77
2022/03/31 11:18:21;;;;;;;7.00;4.43;;;;;;;;;;5075695;28;20461;-80
2022/03/31 11:21:01;;;;;;;3.80;2.50;;;;;;;;;;5092511;28;20035;-81
2022/03/31 11:23:28;;;;;;;10.10;3.92;;;;;;;;;;5075288;28;20044;-78
2022/03/31 11:25:54;;;;;;;7.65;3.97;;;;;;;;;;5091881;28;20046;-76
2022/03/31 11:28:22;;;;;;;6.55;3.45;;;;;;;;;;5075256;28;20074;-78
2022/03/31 11:30:49;;;;;;;7.38;3.80;;;;;;;;;;5074669;28;20329;-78
2022/03/31 11:33:16;;;;;;;5.80;3.80;;;;;;;;;;5092164;28;20579;-77
2022/03/31 11:35:43;;;;;;;12.50;4.82;;;;;;;;;;5091594;28;20043;-76
2022/03/31 11:38:16;;;;;;;6.85;4.22;;;;;;;;;;5091440;28;20047;-77
2022/03/31 11:40:44;;;;;;;6.57;3.58;;;;;;;;;;5074675;28;20059;-77
2022/03/31 11:43:11;;;;;;;6.72;3.40;;;;;;;;;;5074228;28;20515;-81
2022/03/31 11:45:37;;;;;;;7.05;3.58;;;;;;;;;;5075080;28;20051;-78
2022/03/31 11:48:13;;;;;;;5.32;4.05;;;;;;;;;;5075322;28;20128;-77
2022/03/31 11:50:52;;;;;;;5.43;3.40;;;;;;;;;;5074684;28;20040;-78
2022/03/31 11:53:19;;;;;;;6.43;3.58;;;;;;;;;;5075083;28;20039;-79
2022/03/31 11:55:55;;;;;;;4.95;4.40;;;;;;;;;;5074779;28;20541;-76
2022/03/31 11:58:21;;;;;;;7.15;4.57;;;;;;;;;;5075586;28;20035;-77
2022/03/31 12:00:51;;;;;;;10.65;5.22;;;;;;;;;;5075702;28;20093;-77
2022/03/31 12:03:17;;;;;;;7.70;3.70;;;;;;;;;;5092692;28;20398;-80
2022/03/31 12:05:44;;;;;;;9.48;5.93;;;;;;;;;;5075649;28;20059;-81
2022/03/31 12:08:10;;;;;;;10.60;4.93;;;;;;;;;;5077034;28;20108;-78
2022/03/31 12:10:36;;;;;;;9.88;5.65;;;;;;;;;;5076333;28;20070;-80
2022/03/31 12:13:05;;;;;;;9.35;5.07;;;;;;;;;;5094415;28;20075;-77
2022/03/31 12:15:31;;;;;;;29.67;11.57;;;;;;;;;;5076215;28;20039;-78
2022/03/31 12:17:57;;;;;;;21.85;9.73;;;;;;;;;;5094031;28;20051;-76
2022/03/31 12:20:23;;;;;;;14.70;7.53;;;;;;;;;;5075913;28;20624;-78
2022/03/31 12:22:49;;;;;;;13.85;8.75;;;;;;;;;;5078192;28;20040;-78
2022/03/31 12:25:25;;;;;;;10.90;7.35;;;;;;;;;;5093579;28;20531;-78
2022/03/31 12:27:53;;;;;;;16.45;7.55;;;;;;;;;;5078394;28;20036;-76
2022/03/31 12:30:19;;;;;;;13.73;6.70;;;;;;;;;;5078126;28;20043;-76
2022/03/31 12:32:49;;;;;;;10.30;6.82;;;;;;;;;;5076723;28;20043;-76
2022/03/31 12:35:15;;;;;;;12.82;7.30;;;;;;;;;;5077461;28;20050;-77
2022/03/31 12:37:45;;;;;;;15.15;6.57;;;;;;;;;;5078873;28;20039;-77
2022/03/31 12:40:13;;;;;;;16.95;8.05;;;;;;;;;;5097666;28;20071;-76
2022/03/31 12:42:50;;;;;;;16.88;8.10;;;;;;;;;;5080795;28;20483;-77
2022/03/31 12:45:16;;;;;;;14.57;7.88;;;;;;;;;;5088866;27;20027;-82
2022/03/31 12:47:43;;;;;;;15.07;8.23;;;;;;;;;;5092399;28;20043;-77
2022/03/31 12:50:20;;;;;;;18.77;9.55;;;;;;;;;;5090453;28;20056;-78
2022/03/31 12:53:00;;;;;;;16.80;8.65;;;;;;;;;;5105502;28;20042;-78
2022/03/31 12:55:36;;;;;;;11.32;7.07;;;;;;;;;;5105060;27;20156;-76
2022/03/31 12:58:04;;;;;;;16.25;7.38;;;;;;;;;;5087803;28;20059;-79
2022/03/31 13:00:32;;;;;;;17.90;9.00;;;;;;;;;;5104677;28;20479;-75
2022/03/31 13:02:59;;;;;;;7.57;5.35;;;;;;;;;;5106480;28;20031;-77
2022/03/31 13:05:25;;;;;;;18.05;9.52;;;;;;;;;;5090249;28;20050;-79
2022/03/31 13:07:52;;;;;;;11.82;6.80;;;;;;;;;;5089866;28;20092;-79
2022/03/31 13:10:19;;;;;;;15.38;8.05;;;;;;;;;;5088276;28;20038;-76
2022/03/31 13:12:45;;;;;;;15.82;9.18;;;;;;;;;;5108497;27;20039;-79
2022/03/31 13:15:13;;;;;;;6.93;4.93;;;;;;;;;;5109913;27;20039;-78
2022/03/31 13:17:44;;;;;;;16.98;9.35;;;;;;;;;;5110599;27;20386;-77
2022/03/31 13:20:11;;;;;;;19.63;11.02;;;;;;;;;;5111192;27;20048;-77
2022/03/31 13:22:38;;;;;;;22.17;9.02;;;;;;;;;;5092614;27;20035;-79
2022/03/31 13:25:06;;;;;;;13.82;7.88;;;;;;;;;;5111758;27;20148;-78
2022/03/31 13:27:33;;;;;;;19.88;8.75;;;;;;;;;;5095318;27;20116;-76
2022/03/31 13:29:59;;;;;;;14.48;7.18;;;;;;;;;;5110047;27;20502;-78
2022/03/31 13:32:26;;;;;;;22.17;10.65;;;;;;;;;;5107589;27;20051;-79
2022/03/31 13:34:52;;;;;;;15.70;8.77;;;;;;;;;;5110326;27;20513;-78
2022/03/31 13:37:19;;;;;;;18.30;10.00;;;;;;;;;;5091634;27;20437;-77
2022/03/31 13:39:45;;;;;;;19.17;11.02;;;;;;;;;;5110237;27;20035;-80
2022/03/31 13:42:12;;;;;;;16.27;9.55;;;;;;;;;;5093654;27;20050;-81
2022/03/31 13:44:39;;;;;;;13.43;7.05;;;;;;;;;;5091942;27;20039;-80
2022/03/31 13:47:06;;;;;;;10.70;6.40;;;;;;;;;;5109189;27;20035;-77
2022/03/31 13:49:33;;;;;;;17.15;8.15;;;;;;;;;;5091015;27;20043;-82
2022/03/31 13:51:59;;;;;;;15.05;9.13;;;;;;;;;;5111048;28;20043;-78
2022/03/31 13:54:27;;;;;;;13.90;7.75;;;;;;;;;;5085036;28;20406;-81
2022/03/31 13:56:53;;;;;;;11.38;7.38;;;;;;;;;;5084389;28;20047;-76
2022/03/31 14:02:07;;;;;;;16.65;8.45;;;;;;;;;;5100953;28;20039;-81
2022/03/31 14:04:33;;;;;;;13.43;8.60;;;;;;;;;;5086895;27;20387;-83
2022/03/31 14:07:00;;;;;;;11.77;7.55;;;;;;;;;;5063472;28;20044;-76
2022/03/31 14:09:26;;;;;;;14.10;6.70;;;;;;;;;;5078721;28;20040;-85
2022/03/31 14:11:53;;;;;;;10.20;6.28;;;;;;;;;;5063322;28;20101;-81
2022/03/31 14:14:21;;;;;;;10.63;5.97;;;;;;;;;;5079272;28;20040;-77
2022/03/31 14:16:48;;;;;;;9.90;5.45;;;;;;;;;;5062492;28;20044;-78
2022/03/31 14:19:15;;;;;;;8.13;4.25;;;;;;;;;;5061675;28;20080;-80
2022/03/31 14:21:43;;;;;;;6.63;4.38;;;;;;;;;;5061248;28;20044;-77
2022/03/31 14:24:09;;;;;;;6.28;4.22;;;;;;;;;;5077052;28;20074;-73
2022/03/31 14:26:36;;;;;;;6.60;4.53;;;;;;;;;;5065173;27;20044;-81
2022/03/31 14:29:03;;;;;;;7.43;4.97;;;;;;;;;;5120852;27;20050;-80
2022/03/31 14:31:29;;;;;;;9.38;6.00;;;;;;;;;;5118179;27;20494;-78
2022/03/31 14:33:55;;;;;;;4.90;3.38;;;;;;;;;;5118521;27;20051;-79
2022/03/31 14:36:22;;;;;;;7.30;5.07;;;;;;;;;;5117918;27;20075;-78
2022/03/31 14:38:49;;;;;;;9.15;5.15;;;;;;;;;;5119071;27;20121;-81
2022/03/31 14:41:16;;;;;;;10.75;5.43;;;;;;;;;;5115203;27;20055;-78
2022/03/31 14:43:44;;;;;;;5.72;4.15;;;;;;;;;;5115968;27;20387;-78
2022/03/31 14:46:10;;;;;;;5.65;3.15;;;;;;;;;;5114028;27;20047;-78
2022/03/31 14:48:37;;;;;;;7.15;4.57;;;;;;;;;;5113463;27;20039;-80
2022/03/31 14:51:03;;;;;;;8.88;3.65;;;;;;;;;;5113303;27;20039;-76
2022/03/31 14:53:29;;;;;;;5.70;3.13;;;;;;;;;;5115372;27;20050;-75
2022/03/31 14:55:55;;;;;;;6.55;4.25;;;;;;;;;;5114865;27;20089;-77
2022/03/31 14:58:22;;;;;;;7.72;5.10;;;;;;;;;;5113899;27;20047;-76